sensor_id;sensor_type;location;lat;lon;timestamp;pressure;altitude;pressure_sealevel;temperature;humidity
19777;BME280;10047;42.490;26.012;2023-03-16T00:01:13;99575.78;;;8.94;100.00
19777;BME280;10047;42.490;26.012;2023-03-16T00:03:39;99588.34;;;8.99;100.00
19777;BME280;10047;42.490;26.012;2023-03-16T00:06:04;99598.38;;;9.02;100.00
19777;BME280;10047;42.490;26.012;2023-03-16T00:08:30;99598.47;;;8.99;100.00
19777;BME280;10047;42.490;26.012;2023-03-16T00:10:55;99599.81;;;8.81;100.00
19777;BME280;10047;42.490;26.012;2023-03-16T00:13:22;99647.91;;;9.15;100.00
19777;BME280;10047;42.490;26.012;2023-03-16T00:15:50;99650.34;;;9.18;100.00
19777;BME280;10047;42.490;26.012;2023-03-16T00:18:16;99596.63;;;8.74;100.00
19777;BME280;10047;42.490;26.012;2023-03-16T00:20:42;99651.78;;;8.97;100.00
19777;BME280;10047;42.490;26.012;2023-03-16T00:23:07;99635.28;;;9.12;100.00
19777;BME280;10047;42.490;26.012;2023-03-16T00:25:33;99596.41;;;8.82;100.00
19777;BME280;10047;42.490;26.012;2023-03-16T00:27:59;99647.84;;;9.16;100.00
19777;BME280;10047;42.490;26.012;2023-03-16T00:30:30;99597.72;;;8.64;100.00
19777;BME280;10047;42.490;26.012;2023-03-16T00:32:57;99627.31;;;8.95;100.00
19777;BME280;10047;42.490;26.012;2023-03-16T00:35:22;99620.19;;;9.09;100.00
19777;BME280;10047;42.490;26.012;2023-03-16T00:37:48;99579.91;;;8.67;100.00
19777;BME280;10047;42.490;26.012;2023-03-16T00:40:14;99555.03;;;8.51;100.00
19777;BME280;10047;42.490;26.012;2023-03-16T00:42:39;99614.41;;;8.73;100.00
19777;BME280;10047;42.490;26.012;2023-03-16T00:45:06;99642.59;;;8.93;100.00
19777;BME280;10047;42.490;26.012;2023-03-16T00:47:33;99644.13;;;8.99;100.00
19777;BME280;10047;42.490;26.012;2023-03-16T00:49:59;99603.34;;;8.43;100.00
19777;BME280;10047;42.490;26.012;2023-03-16T00:52:25;99642.28;;;9.04;100.00
19777;BME280;10047;42.490;26.012;2023-03-16T00:54:52;99644.91;;;9.01;100.00
19777;BME280;10047;42.490;26.012;2023-03-16T00:57:19;99629.06;;;8.93;100.00
19777;BME280;10047;42.490;26.012;2023-03-16T00:59:45;99591.50;;;8.76;100.00
19777;BME280;10047;42.490;26.012;2023-03-16T01:02:12;99627.16;;;9.01;100.00
19777;BME280;10047;42.490;26.012;2023-03-16T01:04:38;99594.31;;;8.96;100.00
19777;BME280;10047;42.490;26.012;2023-03-16T01:07:07;99604.34;;;9.30;100.00
19777;BME280;10047;42.490;26.012;2023-03-16T01:09:33;99604.00;;;9.13;100.00
19777;BME280;10047;42.490;26.012;2023-03-16T01:12:05;99638.78;;;9.37;100.00
19777;BME280;10047;42.490;26.012;2023-03-16T01:14:33;99647.63;;;9.53;100.00
19777;BME280;10047;42.490;26.012;2023-03-16T01:17:00;99589.81;;;9.35;100.00
19777;BME280;10047;42.490;26.012;2023-03-16T01:19:26;99660.59;;;9.44;100.00
19777;BME280;10047;42.490;26.012;2023-03-16T01:21:51;99629.44;;;9.10;100.00
19777;BME280;10047;42.490;26.012;2023-03-16T01:24:17;99648.38;;;9.27;100.00
19777;BME280;10047;42.490;26.012;2023-03-16T01:26:43;99621.81;;;9.39;100.00
19777;BME280;10047;42.490;26.012;2023-03-16T01:29:09;99605.22;;;9.29;100.00
19777;BME280;10047;42.490;26.012;2023-03-16T01:31:34;99611.59;;;9.13;100.00
19777;BME280;10047;42.490;26.012;2023-03-16T01:34:00;99586.66;;;8.99;100.00
19777;BME280;10047;42.490;26.012;2023-03-16T01:36:29;99592.69;;;8.94;100.00
19777;BME280;10047;42.490;26.012;2023-03-16T01:38:55;99647.16;;;9.40;100.00
19777;BME280;10047;42.490;26.012;2023-03-16T01:41:21;99660.09;;;9.31;100.00
19777;BME280;10047;42.490;26.012;2023-03-16T01:43:46;99656.84;;;9.55;100.00
19777;BME280;10047;42.490;26.012;2023-03-16T01:46:38;99673.84;;;9.53;100.00
19777;BME280;10047;42.490;26.012;2023-03-16T01:59:28;99684.44;;;9.37;100.00
19777;BME280;10047;42.490;26.012;2023-03-16T02:01:55;99675.34;;;9.30;100.00
19777;BME280;10047;42.490;26.012;2023-03-16T02:07:08;99699.38;;;9.47;100.00
19777;BME280;10047;42.490;26.012;2023-03-16T02:09:36;99698.53;;;9.47;100.00
19777;BME280;10047;42.490;26.012;2023-03-16T02:12:04;99676.88;;;9.35;100.00
19777;BME280;10047;42.490;26.012;2023-03-16T02:14:30;99638.09;;;9.03;100.00
19777;BME280;10047;42.490;26.012;2023-03-16T02:16:56;99681.72;;;9.44;100.00
19777;BME280;10047;42.490;26.012;2023-03-16T02:19:41;99691.94;;;9.41;100.00
19777;BME280;10047;42.490;26.012;2023-03-16T02:22:11;99692.56;;;9.49;100.00
19777;BME280;10047;42.490;26.012;2023-03-16T02:24:38;99704.16;;;9.29;100.00
19777;BME280;10047;42.490;26.012;2023-03-16T02:27:07;99706.41;;;9.38;100.00
19777;BME280;10047;42.490;26.012;2023-03-16T02:29:58;99708.22;;;9.63;100.00
19777;BME280;10047;42.490;26.012;2023-03-16T02:32:27;99702.31;;;9.63;100.00
19777;BME280;10047;42.490;26.012;2023-03-16T02:34:54;99702.63;;;9.52;100.00
19777;BME280;10047;42.490;26.012;2023-03-16T02:37:20;99685.69;;;9.53;100.00
19777;BME280;10047;42.490;26.012;2023-03-16T02:39:46;99663.56;;;9.29;100.00
19777;BME280;10047;42.490;26.012;2023-03-16T02:42:17;99680.94;;;9.41;100.00
19777;BME280;10047;42.490;26.012;2023-03-16T02:44:44;99718.25;;;9.68;100.00
19777;BME280;10047;42.490;26.012;2023-03-16T02:50:01;99673.72;;;9.29;100.00
19777;BME280;10047;42.490;26.012;2023-03-16T02:52:34;99697.22;;;9.34;100.00
19777;BME280;10047;42.490;26.012;2023-03-16T02:55:00;99713.56;;;9.54;100.00
19777;BME280;10047;42.490;26.012;2023-03-16T02:57:26;99635.84;;;9.21;100.00
19777;BME280;10047;42.490;26.012;2023-03-16T02:59:51;99673.50;;;9.36;100.00
19777;BME280;10047;42.490;26.012;2023-03-16T03:02:17;99690.25;;;9.42;100.00
19777;BME280;10047;42.490;26.012;2023-03-16T03:04:42;99699.09;;;9.58;100.00
19777;BME280;10047;42.490;26.012;2023-03-16T03:07:13;99713.53;;;9.56;100.00
19777;BME280;10047;42.490;26.012;2023-03-16T03:09:40;99717.69;;;9.58;100.00
19777;BME280;10047;42.490;26.012;2023-03-16T03:12:08;99736.94;;;9.66;100.00
19777;BME280;10047;42.490;26.012;2023-03-16T03:14:34;99704.16;;;9.58;100.00
19777;BME280;10047;42.490;26.012;2023-03-16T03:17:07;99745.66;;;9.86;100.00
19777;BME280;10047;42.490;26.012;2023-03-16T03:19:33;99677.56;;;9.42;100.00
19777;BME280;10047;42.490;26.012;2023-03-16T03:22:00;99755.94;;;9.82;100.00
19777;BME280;10047;42.490;26.012;2023-03-16T03:24:29;99724.25;;;9.66;100.00
19777;BME280;10047;42.490;26.012;2023-03-16T03:26:56;99743.00;;;9.60;100.00
19777;BME280;10047;42.490;26.012;2023-03-16T03:29:21;99760.00;;;9.87;100.00
19777;BME280;10047;42.490;26.012;2023-03-16T03:31:46;99782.38;;;10.04;100.00
19777;BME280;10047;42.490;26.012;2023-03-16T03:34:12;99784.66;;;10.13;100.00
19777;BME280;10047;42.490;26.012;2023-03-16T03:36:37;99777.19;;;10.07;100.00
19777;BME280;10047;42.490;26.012;2023-03-16T03:39:03;99782.84;;;10.16;100.00
19777;BME280;10047;42.490;26.012;2023-03-16T03:41:32;99767.88;;;10.07;100.00
19777;BME280;10047;42.490;26.012;2023-03-16T03:43:58;99778.16;;;10.03;100.00
19777;BME280;10047;42.490;26.012;2023-03-16T03:46:25;99778.47;;;9.92;100.00
19777;BME280;10047;42.490;26.012;2023-03-16T03:48:51;99792.09;;;10.19;100.00
19777;BME280;10047;42.490;26.012;2023-03-16T03:51:16;99794.88;;;10.11;100.00
19777;BME280;10047;42.490;26.012;2023-03-16T03:53:42;99785.69;;;10.06;100.00
19777;BME280;10047;42.490;26.012;2023-03-16T03:56:07;99793.22;;;10.09;100.00
19777;BME280;10047;42.490;26.012;2023-03-16T03:58:33;99768.69;;;9.79;100.00
19777;BME280;10047;42.490;26.012;2023-03-16T04:00:58;99808.06;;;9.93;100.00
19777;BME280;10047;42.490;26.012;2023-03-16T04:03:24;99775.66;;;9.72;100.00
19777;BME280;10047;42.490;26.012;2023-03-16T04:05:49;99788.19;;;9.78;100.00
19777;BME280;10047;42.490;26.012;2023-03-16T04:08:15;99837.75;;;9.60;100.00
19777;BME280;10047;42.490;26.012;2023-03-16T04:10:40;99781.88;;;9.30;100.00
19777;BME280;10047;42.490;26.012;2023-03-16T04:13:06;99801.03;;;9.41;100.00
19777;BME280;10047;42.490;26.012;2023-03-16T04:15:32;99786.13;;;9.29;100.00
19777;BME280;10047;42.490;26.012;2023-03-16T04:17:58;99789.50;;;9.30;100.00
19777;BME280;10047;42.490;26.012;2023-03-16T04:20:24;99786.06;;;9.32;100.00
19777;BME280;10047;42.490;26.012;2023-03-16T04:22:49;99829.19;;;9.65;100.00
19777;BME280;10047;42.490;26.012;2023-03-16T04:25:22;99776.81;;;9.30;100.00
19777;BME280;10047;42.490;26.012;2023-03-16T04:27:49;99784.38;;;9.33;100.00
19777;BME280;10047;42.490;26.012;2023-03-16T04:30:15;99816.56;;;9.61;100.00
19777;BME280;10047;42.490;26.012;2023-03-16T04:32:41;99829.78;;;9.73;100.00
19777;BME280;10047;42.490;26.012;2023-03-16T04:35:07;99844.91;;;9.77;100.00
19777;BME280;10047;42.490;26.012;2023-03-16T04:37:33;99805.09;;;10.37;100.00
19777;BME280;10047;42.490;26.012;2023-03-16T04:39:59;99845.91;;;9.72;100.00
19777;BME280;10047;42.490;26.012;2023-03-16T04:42:24;99856.81;;;9.75;100.00
19777;BME280;10047;42.490;26.012;2023-03-16T04:44:49;99846.06;;;9.66;100.00
19777;BME280;10047;42.490;26.012;2023-03-16T04:47:15;99867.06;;;9.71;100.00
19777;BME280;10047;42.490;26.012;2023-03-16T04:49:41;99838.91;;;10.10;100.00
19777;BME280;10047;42.490;26.012;2023-03-16T04:52:07;99826.50;;;10.00;100.00
19777;BME280;10047;42.490;26.012;2023-03-16T04:54:33;99857.09;;;9.95;100.00
19777;BME280;10047;42.490;26.012;2023-03-16T04:56:59;99855.63;;;9.88;100.00
19777;BME280;10047;42.490;26.012;2023-03-16T04:59:30;99830.13;;;9.60;100.00
19777;BME280;10047;42.490;26.012;2023-03-16T05:01:56;99871.28;;;10.33;100.00
19777;BME280;10047;42.490;26.012;2023-03-16T05:04:21;99829.84;;;10.02;100.00
19777;BME280;10047;42.490;26.012;2023-03-16T05:06:48;99875.47;;;9.74;100.00
19777;BME280;10047;42.490;26.012;2023-03-16T05:09:14;99862.81;;;9.39;100.00
19777;BME280;10047;42.490;26.012;2023-03-16T05:11:39;99896.78;;;9.67;100.00
19777;BME280;10047;42.490;26.012;2023-03-16T05:14:05;99821.63;;;9.29;100.00
19777;BME280;10047;42.490;26.012;2023-03-16T05:16:30;99857.75;;;9.71;100.00
19777;BME280;10047;42.490;26.012;2023-03-16T05:18:57;99889.47;;;9.56;100.00
19777;BME280;10047;42.490;26.012;2023-03-16T05:21:23;99858.44;;;9.12;100.00
19777;BME280;10047;42.490;26.012;2023-03-16T05:23:48;99850.66;;;9.18;100.00
19777;BME280;10047;42.490;26.012;2023-03-16T05:26:14;99830.63;;;9.07;100.00
19777;BME280;10047;42.490;26.012;2023-03-16T05:28:39;99900.22;;;9.32;100.00
19777;BME280;10047;42.490;26.012;2023-03-16T05:31:07;99869.69;;;9.00;100.00
19777;BME280;10047;42.490;26.012;2023-03-16T05:33:32;99906.50;;;9.16;100.00
19777;BME280;10047;42.490;26.012;2023-03-16T05:35:57;99869.78;;;8.97;100.00
19777;BME280;10047;42.490;26.012;2023-03-16T05:38:23;99898.16;;;9.13;100.00
19777;BME280;10047;42.490;26.012;2023-03-16T05:40:49;99865.09;;;8.81;100.00
19777;BME280;10047;42.490;26.012;2023-03-16T05:43:20;99838.75;;;8.86;100.00
19777;BME280;10047;42.490;26.012;2023-03-16T05:45:45;99915.50;;;9.63;100.00
19777;BME280;10047;42.490;26.012;2023-03-16T05:48:12;99926.84;;;9.13;100.00
19777;BME280;10047;42.490;26.012;2023-03-16T05:50:37;99918.88;;;8.93;100.00
19777;BME280;10047;42.490;26.012;2023-03-16T05:53:02;99917.25;;;8.91;100.00
19777;BME280;10047;42.490;26.012;2023-03-16T05:55:28;99906.47;;;8.81;100.00
19777;BME280;10047;42.490;26.012;2023-03-16T05:57:54;99949.72;;;9.12;100.00
19777;BME280;10047;42.490;26.012;2023-03-16T06:00:20;99903.25;;;8.74;100.00
19777;BME280;10047;42.490;26.012;2023-03-16T06:02:48;99919.22;;;8.78;100.00
19777;BME280;10047;42.490;26.012;2023-03-16T06:05:14;99915.94;;;8.73;100.00
19777;BME280;10047;42.490;26.012;2023-03-16T06:07:40;99922.72;;;8.72;100.00
19777;BME280;10047;42.490;26.012;2023-03-16T06:10:06;99938.31;;;8.93;100.00
19777;BME280;10047;42.490;26.012;2023-03-16T06:12:32;99901.97;;;8.55;100.00
19777;BME280;10047;42.490;26.012;2023-03-16T06:14:59;99864.19;;;8.45;100.00
19777;BME280;10047;42.490;26.012;2023-03-16T06:17:25;99909.38;;;8.64;100.00
19777;BME280;10047;42.490;26.012;2023-03-16T06:19:50;99935.19;;;8.82;100.00
19777;BME280;10047;42.490;26.012;2023-03-16T06:22:16;99913.72;;;8.59;100.00
19777;BME280;10047;42.490;26.012;2023-03-16T06:24:42;99912.63;;;8.69;100.00
19777;BME280;10047;42.490;26.012;2023-03-16T06:27:08;99914.00;;;8.44;100.00
19777;BME280;10047;42.490;26.012;2023-03-16T06:29:33;99963.00;;;8.85;100.00
19777;BME280;10047;42.490;26.012;2023-03-16T06:31:59;99955.66;;;8.72;100.00
19777;BME280;10047;42.490;26.012;2023-03-16T06:34:24;99974.25;;;8.73;100.00
19777;BME280;10047;42.490;26.012;2023-03-16T06:36:49;99911.94;;;8.20;100.00
19777;BME280;10047;42.490;26.012;2023-03-16T06:39:15;99973.75;;;8.54;100.00
19777;BME280;10047;42.490;26.012;2023-03-16T06:41:41;99974.13;;;8.79;100.00
19777;BME280;10047;42.490;26.012;2023-03-16T06:44:07;99965.91;;;8.66;100.00
19777;BME280;10047;42.490;26.012;2023-03-16T06:46:33;99931.78;;;8.43;100.00
19777;BME280;10047;42.490;26.012;2023-03-16T06:48:58;99974.28;;;8.70;100.00
19777;BME280;10047;42.490;26.012;2023-03-16T06:51:25;99948.19;;;8.66;100.00
19777;BME280;10047;42.490;26.012;2023-03-16T06:53:51;99980.88;;;8.79;100.00
19777;BME280;10047;42.490;26.012;2023-03-16T06:56:16;99977.47;;;8.80;100.00
19777;BME280;10047;42.490;26.012;2023-03-16T06:58:42;99940.91;;;8.51;100.00
19777;BME280;10047;42.490;26.012;2023-03-16T07:01:07;99987.78;;;8.70;100.00
19777;BME280;10047;42.490;26.012;2023-03-16T07:03:33;99956.22;;;8.45;100.00
19777;BME280;10047;42.490;26.012;2023-03-16T07:05:58;100003.13;;;8.64;100.00
19777;BME280;10047;42.490;26.012;2023-03-16T07:08:24;99927.00;;;8.29;100.00
19777;BME280;10047;42.490;26.012;2023-03-16T07:10:50;100000.41;;;8.73;100.00
19777;BME280;10047;42.490;26.012;2023-03-16T07:13:16;99973.75;;;8.54;100.00
19777;BME280;10047;42.490;26.012;2023-03-16T07:15:41;99969.47;;;8.59;100.00
19777;BME280;10047;42.490;26.012;2023-03-16T07:18:06;100004.25;;;8.93;100.00
19777;BME280;10047;42.490;26.012;2023-03-16T07:20:32;100002.50;;;8.95;100.00
19777;BME280;10047;42.490;26.012;2023-03-16T07:22:57;99954.59;;;8.43;100.00
19777;BME280;10047;42.490;26.012;2023-03-16T07:25:23;100015.41;;;8.84;100.00
19777;BME280;10047;42.490;26.012;2023-03-16T07:27:48;99976.84;;;8.68;100.00
19777;BME280;10047;42.490;26.012;2023-03-16T07:30:14;100010.28;;;8.86;100.00
19777;BME280;10047;42.490;26.012;2023-03-16T07:32:40;99972.38;;;8.80;100.00
19777;BME280;10047;42.490;26.012;2023-03-16T07:35:08;100007.75;;;8.87;100.00
19777;BME280;10047;42.490;26.012;2023-03-16T07:37:33;99984.47;;;8.68;100.00
19777;BME280;10047;42.490;26.012;2023-03-16T07:39:59;99986.00;;;8.75;100.00
19777;BME280;10047;42.490;26.012;2023-03-16T07:42:25;100010.19;;;9.30;100.00
19777;BME280;10047;42.490;26.012;2023-03-16T07:44:50;99978.19;;;8.86;100.00
19777;BME280;10047;42.490;26.012;2023-03-16T07:47:16;100027.22;;;9.25;100.00
19777;BME280;10047;42.490;26.012;2023-03-16T07:49:42;99976.81;;;9.10;100.00
19777;BME280;10047;42.490;26.012;2023-03-16T07:52:09;100015.47;;;9.19;100.00
19777;BME280;10047;42.490;26.012;2023-03-16T07:54:38;100028.88;;;9.26;100.00
19777;BME280;10047;42.490;26.012;2023-03-16T07:57:04;99998.47;;;9.24;100.00
19777;BME280;10047;42.490;26.012;2023-03-16T07:59:30;100027.53;;;9.10;100.00
19777;BME280;10047;42.490;26.012;2023-03-16T08:01:56;99991.63;;;8.90;100.00
19777;BME280;10047;42.490;26.012;2023-03-16T08:04:21;99987.56;;;8.83;100.00
19777;BME280;10047;42.490;26.012;2023-03-16T08:06:47;100050.72;;;8.93;100.00
19777;BME280;10047;42.490;26.012;2023-03-16T08:09:13;100011.50;;;8.68;100.00
19777;BME280;10047;42.490;26.012;2023-03-16T08:11:38;100046.91;;;9.12;100.00
19777;BME280;10047;42.490;26.012;2023-03-16T08:14:04;100050.75;;;8.90;100.00
19777;BME280;10047;42.490;26.012;2023-03-16T08:16:29;100069.00;;;9.07;100.00
19777;BME280;10047;42.490;26.012;2023-03-16T08:18:56;100020.88;;;8.64;100.00
19777;BME280;10047;42.490;26.012;2023-03-16T08:21:22;100047.00;;;8.66;100.00
19777;BME280;10047;42.490;26.012;2023-03-16T08:23:48;100061.03;;;8.84;100.00
19777;BME280;10047;42.490;26.012;2023-03-16T08:26:21;100057.22;;;8.63;100.00
19777;BME280;10047;42.490;26.012;2023-03-16T08:28:50;100075.25;;;8.91;100.00
19777;BME280;10047;42.490;26.012;2023-03-16T08:31:16;100033.31;;;8.31;100.00
19777;BME280;10047;42.490;26.012;2023-03-16T08:33:43;100067.34;;;8.62;100.00
19777;BME280;10047;42.490;26.012;2023-03-16T08:36:10;100069.38;;;8.88;100.00
19777;BME280;10047;42.490;26.012;2023-03-16T08:38:37;100044.41;;;8.71;100.00
19777;BME280;10047;42.490;26.012;2023-03-16T08:41:04;100084.31;;;9.03;100.00
19777;BME280;10047;42.490;26.012;2023-03-16T08:43:30;100081.44;;;8.77;100.00
19777;BME280;10047;42.490;26.012;2023-03-16T08:45:57;100108.41;;;8.81;100.00
19777;BME280;10047;42.490;26.012;2023-03-16T08:48:23;100100.03;;;8.77;100.00
19777;BME280;10047;42.490;26.012;2023-03-16T08:50:49;100103.63;;;8.64;100.00
19777;BME280;10047;42.490;26.012;2023-03-16T08:53:14;100101.16;;;8.62;100.00
19777;BME280;10047;42.490;26.012;2023-03-16T08:55:40;100130.91;;;8.51;100.00
19777;BME280;10047;42.490;26.012;2023-03-16T08:58:07;100081.31;;;8.38;100.00
19777;BME280;10047;42.490;26.012;2023-03-16T09:00:33;100104.66;;;8.54;100.00
19777;BME280;10047;42.490;26.012;2023-03-16T09:02:59;100115.34;;;9.14;100.00
19777;BME280;10047;42.490;26.012;2023-03-16T09:05:25;100129.59;;;8.77;100.00
19777;BME280;10047;42.490;26.012;2023-03-16T09:07:51;100076.44;;;8.28;100.00
19777;BME280;10047;42.490;26.012;2023-03-16T09:10:18;100132.75;;;8.42;100.00
19777;BME280;10047;42.490;26.012;2023-03-16T09:12:45;100120.84;;;8.93;100.00
19777;BME280;10047;42.490;26.012;2023-03-16T09:15:11;100094.50;;;8.57;100.00
19777;BME280;10047;42.490;26.012;2023-03-16T09:17:38;100147.50;;;8.69;100.00
19777;BME280;10047;42.490;26.012;2023-03-16T09:20:07;100098.44;;;8.71;100.00
19777;BME280;10047;42.490;26.012;2023-03-16T09:22:35;100134.00;;;9.13;100.00
19777;BME280;10047;42.490;26.012;2023-03-16T09:25:02;100141.97;;;8.92;100.00
19777;BME280;10047;42.490;26.012;2023-03-16T09:27:29;100149.69;;;8.87;100.00
19777;BME280;10047;42.490;26.012;2023-03-16T09:29:55;100144.00;;;8.74;100.00
19777;BME280;10047;42.490;26.012;2023-03-16T09:32:21;100122.19;;;8.67;100.00
19777;BME280;10047;42.490;26.012;2023-03-16T09:34:46;100107.19;;;8.55;100.00
19777;BME280;10047;42.490;26.012;2023-03-16T09:37:12;100093.13;;;8.39;100.00
19777;BME280;10047;42.490;26.012;2023-03-16T09:39:37;100158.13;;;8.88;100.00
19777;BME280;10047;42.490;26.012;2023-03-16T09:42:16;100130.06;;;8.51;100.00
19777;BME280;10047;42.490;26.012;2023-03-16T09:44:55;100152.91;;;8.48;100.00
19777;BME280;10047;42.490;26.012;2023-03-16T09:47:27;100137.66;;;8.51;100.00
19777;BME280;10047;42.490;26.012;2023-03-16T09:49:57;100120.34;;;8.27;100.00
19777;BME280;10047;42.490;26.012;2023-03-16T09:52:43;100197.19;;;8.76;100.00
19777;BME280;10047;42.490;26.012;2023-03-16T09:57:52;100200.13;;;8.52;100.00
19777;BME280;10047;42.490;26.012;2023-03-16T10:00:37;100216.16;;;8.54;100.00
19777;BME280;10047;42.490;26.012;2023-03-16T10:03:22;100207.50;;;8.67;100.00
19777;BME280;10047;42.490;26.012;2023-03-16T10:06:03;100196.34;;;9.21;100.00
19777;BME280;10047;42.490;26.012;2023-03-16T10:13:52;100232.72;;;8.74;100.00
19777;BME280;10047;42.490;26.012;2023-03-16T10:16:28;100237.91;;;8.67;100.00
19777;BME280;10047;42.490;26.012;2023-03-16T10:19:09;100214.13;;;8.74;100.00
19777;BME280;10047;42.490;26.012;2023-03-16T10:21:39;100191.00;;;8.43;100.00
19777;BME280;10047;42.490;26.012;2023-03-16T10:24:12;100200.94;;;8.55;100.00
19777;BME280;10047;42.490;26.012;2023-03-16T10:26:42;100203.34;;;8.63;100.00
19777;BME280;10047;42.490;26.012;2023-03-16T10:29:14;100231.91;;;9.20;100.00
19777;BME280;10047;42.490;26.012;2023-03-16T10:31:41;100244.88;;;9.03;100.00
19777;BME280;10047;42.490;26.012;2023-03-16T10:34:07;100238.78;;;8.64;100.00
19777;BME280;10047;42.490;26.012;2023-03-16T10:36:37;100212.78;;;8.53;100.00
19777;BME280;10047;42.490;26.012;2023-03-16T10:39:13;100244.91;;;9.02;100.00
19777;BME280;10047;42.490;26.012;2023-03-16T10:41:53;100208.72;;;8.43;100.00
19777;BME280;10047;42.490;26.012;2023-03-16T10:44:26;100244.84;;;8.54;100.00
19777;BME280;10047;42.490;26.012;2023-03-16T10:47:01;100252.50;;;8.53;100.00
19777;BME280;10047;42.490;26.012;2023-03-16T10:49:28;100260.84;;;8.58;100.00
19777;BME280;10047;42.490;26.012;2023-03-16T10:51:56;100258.53;;;8.44;100.00
19777;BME280;10047;42.490;26.012;2023-03-16T10:54:30;100257.50;;;8.57;100.00
19777;BME280;10047;42.490;26.012;2023-03-16T10:56:57;100210.56;;;8.34;100.00
19777;BME280;10047;42.490;26.012;2023-03-16T11:01:52;100214.88;;;8.24;100.00
19777;BME280;10047;42.490;26.012;2023-03-16T11:04:18;100250.28;;;8.30;100.00
19777;BME280;10047;42.490;26.012;2023-03-16T11:06:54;100218.50;;;8.08;100.00
19777;BME280;10047;42.490;26.012;2023-03-16T11:09:25;100251.13;;;8.84;100.00
19777;BME280;10047;42.490;26.012;2023-03-16T11:11:55;100221.25;;;8.52;100.00
19777;BME280;10047;42.490;26.012;2023-03-16T11:14:25;100233.03;;;8.55;100.00
19777;BME280;10047;42.490;26.012;2023-03-16T11:19:44;100260.16;;;8.48;100.00
19777;BME280;10047;42.490;26.012;2023-03-16T11:22:16;100221.41;;;8.42;100.00
19777;BME280;10047;42.490;26.012;2023-03-16T11:32:23;100272.59;;;8.62;100.00
19777;BME280;10047;42.490;26.012;2023-03-16T11:34:50;100211.44;;;8.31;100.00
19777;BME280;10047;42.490;26.012;2023-03-16T11:40:00;100260.06;;;8.54;100.00
19777;BME280;10047;42.490;26.012;2023-03-16T11:42:38;100215.72;;;8.26;100.00
19777;BME280;10047;42.490;26.012;2023-03-16T11:45:13;100271.13;;;8.49;100.00
19777;BME280;10047;42.490;26.012;2023-03-16T11:48:08;100276.94;;;8.55;100.00
19777;BME280;10047;42.490;26.012;2023-03-16T11:51:08;100270.88;;;8.64;100.00
19777;BME280;10047;42.490;26.012;2023-03-16T11:53:46;100269.69;;;8.31;100.00
19777;BME280;10047;42.490;26.012;2023-03-16T11:56:20;100272.16;;;8.37;100.00
19777;BME280;10047;42.490;26.012;2023-03-16T11:59:02;100278.53;;;8.62;100.00
19777;BME280;10047;42.490;26.012;2023-03-16T12:02:02;100284.72;;;8.42;100.00
19777;BME280;10047;42.490;26.012;2023-03-16T12:04:44;100278.00;;;8.41;100.00
19777;BME280;10047;42.490;26.012;2023-03-16T12:10:22;100289.28;;;8.77;100.00
19777;BME280;10047;42.490;26.012;2023-03-16T12:13:11;100282.91;;;8.50;100.00
19777;BME280;10047;42.490;26.012;2023-03-16T12:15:41;100299.84;;;8.48;100.00
19777;BME280;10047;42.490;26.012;2023-03-16T12:18:18;100256.59;;;7.99;100.00
19777;BME280;10047;42.490;26.012;2023-03-16T12:20:57;100260.31;;;8.38;100.00
19777;BME280;10047;42.490;26.012;2023-03-16T12:23:38;100295.28;;;8.69;100.00
19777;BME280;10047;42.490;26.012;2023-03-16T12:26:06;100269.94;;;8.12;100.00
19777;BME280;10047;42.490;26.012;2023-03-16T12:28:33;100307.22;;;8.64;100.00
19777;BME280;10047;42.490;26.012;2023-03-16T12:33:46;100314.22;;;8.47;100.00
19777;BME280;10047;42.490;26.012;2023-03-16T12:39:07;100320.19;;;8.42;100.00
19777;BME280;10047;42.490;26.012;2023-03-16T12:42:18;100326.16;;;8.39;100.00
19777;BME280;10047;42.490;26.012;2023-03-16T12:44:48;100312.00;;;8.23;100.00
19777;BME280;10047;42.490;26.012;2023-03-16T12:47:25;100335.69;;;8.19;100.00
19777;BME280;10047;42.490;26.012;2023-03-16T12:49:54;100335.81;;;8.07;100.00
19777;BME280;10047;42.490;26.012;2023-03-16T12:52:38;100295.94;;;8.23;100.00
19777;BME280;10047;42.490;26.012;2023-03-16T12:57:39;100339.81;;;8.26;100.00
19777;BME280;10047;42.490;26.012;2023-03-16T13:00:07;100314.81;;;8.01;100.00
19777;BME280;10047;42.490;26.012;2023-03-16T13:02:35;100359.19;;;8.32;100.00
19777;BME280;10047;42.490;26.012;2023-03-16T13:05:09;100360.09;;;8.26;100.00
19777;BME280;10047;42.490;26.012;2023-03-16T13:07:36;100271.19;;;7.79;100.00
19777;BME280;10047;42.490;26.012;2023-03-16T13:10:07;100314.75;;;8.05;100.00
19777;BME280;10047;42.490;26.012;2023-03-16T13:12:36;100329.44;;;8.44;100.00
19777;BME280;10047;42.490;26.012;2023-03-16T13:17:49;100364.31;;;8.27;100.00
19777;BME280;10047;42.490;26.012;2023-03-16T13:20:30;100332.53;;;8.02;100.00
19777;BME280;10047;42.490;26.012;2023-03-16T13:23:45;100364.19;;;8.36;100.00
19777;BME280;10047;42.490;26.012;2023-03-16T13:28:43;100339.28;;;8.02;100.00
19777;BME280;10047;42.490;26.012;2023-03-16T13:31:27;100387.97;;;8.20;100.00
19777;BME280;10047;42.490;26.012;2023-03-16T13:33:59;100306.00;;;7.60;100.00
19777;BME280;10047;42.490;26.012;2023-03-16T13:36:28;100379.63;;;8.15;100.00
19777;BME280;10047;42.490;26.012;2023-03-16T13:39:03;100348.56;;;8.01;100.00
19777;BME280;10047;42.490;26.012;2023-03-16T13:41:30;100358.81;;;7.92;100.00
19777;BME280;10047;42.490;26.012;2023-03-16T13:43:56;100395.69;;;8.11;100.00
19777;BME280;10047;42.490;26.012;2023-03-16T13:46:27;100380.78;;;7.85;100.00
19777;BME280;10047;42.490;26.012;2023-03-16T13:48:56;100386.41;;;8.12;100.00